sensor_id;sensor_type;location;lat;lon;timestamp;P1;durP1;ratioP1;P2;durP2;ratioP2
20828;SDS011;10575;50.124;8.582;2022-07-29T00:01:52;2.75;;;1.40;;
20828;SDS011;10575;50.124;8.582;2022-07-29T00:04:18;2.72;;;1.50;;
20828;SDS011;10575;50.124;8.582;2022-07-29T00:06:44;4.80;;;1.75;;
20828;SDS011;10575;50.124;8.582;2022-07-29T00:09:10;4.60;;;1.65;;
20828;SDS011;10575;50.124;8.582;2022-07-29T00:11:35;4.30;;;1.80;;
20828;SDS011;10575;50.124;8.582;2022-07-29T00:14:01;4.10;;;1.92;;
20828;SDS011;10575;50.124;8.582;2022-07-29T00:16:27;2.55;;;1.67;;
20828;SDS011;10575;50.124;8.582;2022-07-29T00:18:52;5.97;;;2.00;;
20828;SDS011;10575;50.124;8.582;2022-07-29T00:21:18;18.65;;;2.30;;
20828;SDS011;10575;50.124;8.582;2022-07-29T00:23:43;8.48;;;2.25;;
20828;SDS011;10575;50.124;8.582;2022-07-29T00:26:09;5.38;;;1.88;;
20828;SDS011;10575;50.124;8.582;2022-07-29T00:28:34;6.70;;;1.90;;
20828;SDS011;10575;50.124;8.582;2022-07-29T00:31:00;5.28;;;1.98;;
20828;SDS011;10575;50.124;8.582;2022-07-29T00:33:26;7.03;;;2.10;;
20828;SDS011;10575;50.124;8.582;2022-07-29T00:35:51;2.88;;;2.00;;
20828;SDS011;10575;50.124;8.582;2022-07-29T00:38:17;7.13;;;2.08;;
20828;SDS011;10575;50.124;8.582;2022-07-29T00:40:45;6.38;;;2.20;;
20828;SDS011;10575;50.124;8.582;2022-07-29T00:43:11;6.05;;;2.47;;
20828;SDS011;10575;50.124;8.582;2022-07-29T00:45:39;4.40;;;2.08;;
20828;SDS011;10575;50.124;8.582;2022-07-29T00:48:05;4.53;;;2.17;;
20828;SDS011;10575;50.124;8.582;2022-07-29T00:50:33;6.97;;;2.28;;
20828;SDS011;10575;50.124;8.582;2022-07-29T00:52:59;8.15;;;2.20;;
20828;SDS011;10575;50.124;8.582;2022-07-29T00:55:25;4.82;;;2.22;;
20828;SDS011;10575;50.124;8.582;2022-07-29T00:57:51;3.85;;;2.10;;
20828;SDS011;10575;50.124;8.582;2022-07-29T01:00:19;4.53;;;2.22;;
20828;SDS011;10575;50.124;8.582;2022-07-29T01:02:46;2.88;;;2.05;;
20828;SDS011;10575;50.124;8.582;2022-07-29T01:05:13;9.20;;;2.63;;
20828;SDS011;10575;50.124;8.582;2022-07-29T01:07:39;6.90;;;2.20;;
20828;SDS011;10575;50.124;8.582;2022-07-29T01:10:06;5.20;;;2.33;;
20828;SDS011;10575;50.124;8.582;2022-07-29T01:12:34;5.95;;;2.38;;
20828;SDS011;10575;50.124;8.582;2022-07-29T01:15:02;3.13;;;2.30;;
20828;SDS011;10575;50.124;8.582;2022-07-29T01:17:35;3.35;;;2.22;;
20828;SDS011;10575;50.124;8.582;2022-07-29T01:23:10;5.03;;;2.40;;
20828;SDS011;10575;50.124;8.582;2022-07-29T01:31:47;4.32;;;2.10;;
20828;SDS011;10575;50.124;8.582;2022-07-29T01:34:24;5.45;;;2.70;;
20828;SDS011;10575;50.124;8.582;2022-07-29T01:37:22;4.93;;;2.30;;
20828;SDS011;10575;50.124;8.582;2022-07-29T01:39:52;6.20;;;2.80;;
20828;SDS011;10575;50.124;8.582;2022-07-29T01:42:23;5.35;;;2.33;;
20828;SDS011;10575;50.124;8.582;2022-07-29T01:45:01;3.60;;;2.42;;
20828;SDS011;10575;50.124;8.582;2022-07-29T01:47:32;4.07;;;2.65;;
20828;SDS011;10575;50.124;8.582;2022-07-29T01:50:08;5.70;;;2.45;;
20828;SDS011;10575;50.124;8.582;2022-07-29T01:53:10;3.78;;;2.08;;
20828;SDS011;10575;50.124;8.582;2022-07-29T01:55:34;6.10;;;2.75;;
20828;SDS011;10575;50.124;8.582;2022-07-29T01:58:04;4.70;;;2.45;;
20828;SDS011;10575;50.124;8.582;2022-07-29T02:00:31;5.43;;;2.35;;
20828;SDS011;10575;50.124;8.582;2022-07-29T02:02:59;4.93;;;2.40;;
20828;SDS011;10575;50.124;8.582;2022-07-29T02:05:28;4.65;;;2.72;;
20828;SDS011;10575;50.124;8.582;2022-07-29T02:07:55;6.25;;;2.42;;
20828;SDS011;10575;50.124;8.582;2022-07-29T02:10:24;6.20;;;2.40;;
20828;SDS011;10575;50.124;8.582;2022-07-29T02:12:52;6.43;;;3.00;;
20828;SDS011;10575;50.124;8.582;2022-07-29T02:15:21;9.82;;;2.50;;
20828;SDS011;10575;50.124;8.582;2022-07-29T02:17:59;4.57;;;2.30;;
20828;SDS011;10575;50.124;8.582;2022-07-29T02:20:29;6.15;;;2.50;;
20828;SDS011;10575;50.124;8.582;2022-07-29T02:22:56;5.45;;;2.22;;
20828;SDS011;10575;50.124;8.582;2022-07-29T02:25:23;3.85;;;2.55;;
20828;SDS011;10575;50.124;8.582;2022-07-29T02:27:50;4.10;;;2.40;;
20828;SDS011;10575;50.124;8.582;2022-07-29T02:30:17;6.07;;;2.60;;
20828;SDS011;10575;50.124;8.582;2022-07-29T02:32:44;5.03;;;2.78;;
20828;SDS011;10575;50.124;8.582;2022-07-29T02:35:13;11.07;;;2.33;;
20828;SDS011;10575;50.124;8.582;2022-07-29T02:37:40;7.10;;;2.20;;
20828;SDS011;10575;50.124;8.582;2022-07-29T02:40:08;8.43;;;2.38;;
20828;SDS011;10575;50.124;8.582;2022-07-29T02:42:37;4.85;;;2.45;;
20828;SDS011;10575;50.124;8.582;2022-07-29T02:45:06;4.63;;;2.50;;
20828;SDS011;10575;50.124;8.582;2022-07-29T02:47:45;6.05;;;2.85;;
20828;SDS011;10575;50.124;8.582;2022-07-29T02:50:18;7.47;;;2.50;;
20828;SDS011;10575;50.124;8.582;2022-07-29T02:52:49;6.20;;;2.33;;
20828;SDS011;10575;50.124;8.582;2022-07-29T02:55:37;7.28;;;3.03;;
20828;SDS011;10575;50.124;8.582;2022-07-29T03:00:40;6.30;;;2.45;;
20828;SDS011;10575;50.124;8.582;2022-07-29T03:03:09;6.35;;;3.25;;
20828;SDS011;10575;50.124;8.582;2022-07-29T03:05:37;5.78;;;2.70;;
20828;SDS011;10575;50.124;8.582;2022-07-29T03:08:04;4.97;;;2.33;;
20828;SDS011;10575;50.124;8.582;2022-07-29T03:10:33;6.38;;;2.75;;
20828;SDS011;10575;50.124;8.582;2022-07-29T03:13:22;4.72;;;2.40;;
20828;SDS011;10575;50.124;8.582;2022-07-29T03:15:52;6.57;;;2.53;;
20828;SDS011;10575;50.124;8.582;2022-07-29T03:18:22;3.72;;;2.67;;
20828;SDS011;10575;50.124;8.582;2022-07-29T03:20:50;5.57;;;2.67;;
20828;SDS011;10575;50.124;8.582;2022-07-29T03:23:23;4.25;;;2.92;;
20828;SDS011;10575;50.124;8.582;2022-07-29T03:26:10;7.90;;;2.65;;
20828;SDS011;10575;50.124;8.582;2022-07-29T03:28:36;4.90;;;2.85;;
20828;SDS011;10575;50.124;8.582;2022-07-29T03:31:02;6.45;;;2.70;;
20828;SDS011;10575;50.124;8.582;2022-07-29T03:33:27;5.63;;;2.97;;
20828;SDS011;10575;50.124;8.582;2022-07-29T03:35:55;6.70;;;3.50;;
20828;SDS011;10575;50.124;8.582;2022-07-29T03:38:21;4.63;;;2.67;;
20828;SDS011;10575;50.124;8.582;2022-07-29T03:40:52;4.38;;;2.63;;
20828;SDS011;10575;50.124;8.582;2022-07-29T03:43:21;4.38;;;2.70;;
20828;SDS011;10575;50.124;8.582;2022-07-29T03:46:04;4.18;;;2.58;;
20828;SDS011;10575;50.124;8.582;2022-07-29T03:48:33;7.43;;;2.53;;
20828;SDS011;10575;50.124;8.582;2022-07-29T03:51:08;11.02;;;3.10;;
20828;SDS011;10575;50.124;8.582;2022-07-29T03:53:34;6.53;;;2.65;;
20828;SDS011;10575;50.124;8.582;2022-07-29T03:56:01;6.50;;;2.40;;
20828;SDS011;10575;50.124;8.582;2022-07-29T03:58:28;4.80;;;2.65;;
20828;SDS011;10575;50.124;8.582;2022-07-29T04:00:56;8.13;;;3.10;;
20828;SDS011;10575;50.124;8.582;2022-07-29T04:03:22;4.45;;;2.38;;
20828;SDS011;10575;50.124;8.582;2022-07-29T04:06:01;7.72;;;2.47;;
20828;SDS011;10575;50.124;8.582;2022-07-29T04:08:27;4.15;;;2.63;;
20828;SDS011;10575;50.124;8.582;2022-07-29T04:10:53;4.35;;;2.80;;
20828;SDS011;10575;50.124;8.582;2022-07-29T04:13:19;4.18;;;2.88;;
20828;SDS011;10575;50.124;8.582;2022-07-29T04:15:48;4.35;;;3.03;;
20828;SDS011;10575;50.124;8.582;2022-07-29T04:18:13;8.95;;;2.50;;
20828;SDS011;10575;50.124;8.582;2022-07-29T04:20:39;4.63;;;2.92;;
20828;SDS011;10575;50.124;8.582;2022-07-29T04:23:05;5.30;;;2.75;;
20828;SDS011;10575;50.124;8.582;2022-07-29T04:25:30;4.55;;;2.80;;
20828;SDS011;10575;50.124;8.582;2022-07-29T04:27:56;4.35;;;2.40;;
20828;SDS011;10575;50.124;8.582;2022-07-29T04:30:28;8.18;;;2.92;;
20828;SDS011;10575;50.124;8.582;2022-07-29T04:32:55;4.82;;;2.58;;
20828;SDS011;10575;50.124;8.582;2022-07-29T04:35:21;6.32;;;2.30;;
20828;SDS011;10575;50.124;8.582;2022-07-29T04:37:46;7.45;;;2.95;;
20828;SDS011;10575;50.124;8.582;2022-07-29T04:40:15;8.20;;;2.60;;
20828;SDS011;10575;50.124;8.582;2022-07-29T04:42:40;4.95;;;2.47;;
20828;SDS011;10575;50.124;8.582;2022-07-29T04:45:06;9.00;;;3.05;;
20828;SDS011;10575;50.124;8.582;2022-07-29T04:47:32;7.50;;;2.90;;
20828;SDS011;10575;50.124;8.582;2022-07-29T04:49:57;5.22;;;2.40;;
20828;SDS011;10575;50.124;8.582;2022-07-29T04:52:23;3.38;;;2.42;;
20828;SDS011;10575;50.124;8.582;2022-07-29T04:54:49;8.50;;;2.95;;
20828;SDS011;10575;50.124;8.582;2022-07-29T04:57:14;4.00;;;2.65;;
20828;SDS011;10575;50.124;8.582;2022-07-29T04:59:40;7.88;;;2.88;;
20828;SDS011;10575;50.124;8.582;2022-07-29T05:02:05;5.18;;;3.17;;
20828;SDS011;10575;50.124;8.582;2022-07-29T05:04:31;4.18;;;2.42;;
20828;SDS011;10575;50.124;8.582;2022-07-29T05:06:56;4.60;;;2.83;;
20828;SDS011;10575;50.124;8.582;2022-07-29T05:09:22;9.20;;;3.08;;
20828;SDS011;10575;50.124;8.582;2022-07-29T05:11:47;5.22;;;2.67;;
20828;SDS011;10575;50.124;8.582;2022-07-29T05:14:13;7.93;;;3.00;;
20828;SDS011;10575;50.124;8.582;2022-07-29T05:16:39;4.97;;;3.03;;
20828;SDS011;10575;50.124;8.582;2022-07-29T05:19:05;10.07;;;3.10;;
20828;SDS011;10575;50.124;8.582;2022-07-29T05:21:31;5.43;;;2.92;;
20828;SDS011;10575;50.124;8.582;2022-07-29T05:23:56;4.90;;;2.63;;
20828;SDS011;10575;50.124;8.582;2022-07-29T05:26:22;8.90;;;3.30;;
20828;SDS011;10575;50.124;8.582;2022-07-29T05:28:48;4.43;;;2.95;;
20828;SDS011;10575;50.124;8.582;2022-07-29T05:31:14;4.40;;;2.40;;
20828;SDS011;10575;50.124;8.582;2022-07-29T05:33:40;5.47;;;2.70;;
20828;SDS011;10575;50.124;8.582;2022-07-29T05:36:06;8.05;;;2.50;;
20828;SDS011;10575;50.124;8.582;2022-07-29T05:38:32;7.63;;;2.83;;
20828;SDS011;10575;50.124;8.582;2022-07-29T05:40:59;3.38;;;2.25;;
20828;SDS011;10575;50.124;8.582;2022-07-29T05:43:27;6.07;;;2.88;;
20828;SDS011;10575;50.124;8.582;2022-07-29T05:45:53;5.32;;;2.88;;
20828;SDS011;10575;50.124;8.582;2022-07-29T05:48:19;5.85;;;2.70;;
20828;SDS011;10575;50.124;8.582;2022-07-29T05:50:44;10.93;;;2.90;;
20828;SDS011;10575;50.124;8.582;2022-07-29T05:53:10;6.60;;;3.15;;
20828;SDS011;10575;50.124;8.582;2022-07-29T05:55:35;8.05;;;2.72;;
20828;SDS011;10575;50.124;8.582;2022-07-29T05:58:01;4.55;;;2.38;;
20828;SDS011;10575;50.124;8.582;2022-07-29T06:00:27;5.05;;;2.38;;
20828;SDS011;10575;50.124;8.582;2022-07-29T06:02:53;8.50;;;2.90;;
20828;SDS011;10575;50.124;8.582;2022-07-29T06:05:18;5.70;;;2.63;;
20828;SDS011;10575;50.124;8.582;2022-07-29T06:07:44;4.35;;;2.35;;
20828;SDS011;10575;50.124;8.582;2022-07-29T06:10:09;6.07;;;2.80;;
20828;SDS011;10575;50.124;8.582;2022-07-29T06:12:35;8.57;;;2.60;;
20828;SDS011;10575;50.124;8.582;2022-07-29T06:15:01;4.85;;;2.30;;
20828;SDS011;10575;50.124;8.582;2022-07-29T06:17:26;7.72;;;2.47;;
20828;SDS011;10575;50.124;8.582;2022-07-29T06:19:52;5.65;;;2.50;;
20828;SDS011;10575;50.124;8.582;2022-07-29T06:22:18;7.18;;;2.30;;
20828;SDS011;10575;50.124;8.582;2022-07-29T06:24:43;7.55;;;2.83;;
20828;SDS011;10575;50.124;8.582;2022-07-29T06:27:12;6.45;;;2.47;;
20828;SDS011;10575;50.124;8.582;2022-07-29T06:29:37;4.28;;;2.42;;
20828;SDS011;10575;50.124;8.582;2022-07-29T06:32:03;5.32;;;2.65;;
20828;SDS011;10575;50.124;8.582;2022-07-29T06:34:29;6.15;;;2.38;;
20828;SDS011;10575;50.124;8.582;2022-07-29T06:36:55;3.22;;;2.15;;
20828;SDS011;10575;50.124;8.582;2022-07-29T06:39:20;5.80;;;2.22;;
20828;SDS011;10575;50.124;8.582;2022-07-29T06:41:49;9.13;;;2.70;;
20828;SDS011;10575;50.124;8.582;2022-07-29T06:44:16;2.55;;;2.10;;
20828;SDS011;10575;50.124;8.582;2022-07-29T06:46:42;3.70;;;2.00;;
20828;SDS011;10575;50.124;8.582;2022-07-29T06:49:08;5.05;;;2.00;;
20828;SDS011;10575;50.124;8.582;2022-07-29T06:51:34;7.80;;;2.42;;
20828;SDS011;10575;50.124;8.582;2022-07-29T06:54:00;6.22;;;3.05;;
20828;SDS011;10575;50.124;8.582;2022-07-29T06:56:26;4.15;;;2.42;;
20828;SDS011;10575;50.124;8.582;2022-07-29T06:58:52;6.38;;;2.28;;
20828;SDS011;10575;50.124;8.582;2022-07-29T07:01:17;4.22;;;2.42;;
20828;SDS011;10575;50.124;8.582;2022-07-29T07:03:43;4.28;;;2.30;;
20828;SDS011;10575;50.124;8.582;2022-07-29T07:06:09;4.65;;;2.10;;
20828;SDS011;10575;50.124;8.582;2022-07-29T07:08:34;4.68;;;2.30;;
20828;SDS011;10575;50.124;8.582;2022-07-29T07:11:00;3.67;;;2.35;;
20828;SDS011;10575;50.124;8.582;2022-07-29T07:13:25;5.10;;;2.20;;
20828;SDS011;10575;50.124;8.582;2022-07-29T07:15:51;7.43;;;2.28;;
20828;SDS011;10575;50.124;8.582;2022-07-29T07:18:17;7.43;;;2.08;;
20828;SDS011;10575;50.124;8.582;2022-07-29T07:20:43;5.13;;;2.30;;
20828;SDS011;10575;50.124;8.582;2022-07-29T07:23:10;4.63;;;2.10;;
20828;SDS011;10575;50.124;8.582;2022-07-29T07:25:36;3.40;;;2.20;;
20828;SDS011;10575;50.124;8.582;2022-07-29T07:28:02;2.65;;;2.10;;
20828;SDS011;10575;50.124;8.582;2022-07-29T07:30:28;6.28;;;2.25;;
20828;SDS011;10575;50.124;8.582;2022-07-29T07:32:54;3.75;;;2.20;;
20828;SDS011;10575;50.124;8.582;2022-07-29T07:35:20;4.32;;;2.50;;
20828;SDS011;10575;50.124;8.582;2022-07-29T07:37:45;3.40;;;2.13;;
20828;SDS011;10575;50.124;8.582;2022-07-29T07:40:11;4.10;;;2.38;;
20828;SDS011;10575;50.124;8.582;2022-07-29T07:42:38;6.70;;;2.55;;
20828;SDS011;10575;50.124;8.582;2022-07-29T07:45:04;3.60;;;2.20;;
20828;SDS011;10575;50.124;8.582;2022-07-29T07:47:34;2.70;;;2.28;;
20828;SDS011;10575;50.124;8.582;2022-07-29T07:50:02;6.28;;;2.75;;
20828;SDS011;10575;50.124;8.582;2022-07-29T07:52:29;8.50;;;2.38;;
20828;SDS011;10575;50.124;8.582;2022-07-29T07:55:00;4.00;;;2.13;;
20828;SDS011;10575;50.124;8.582;2022-07-29T07:57:26;3.17;;;2.08;;
20828;SDS011;10575;50.124;8.582;2022-07-29T07:59:57;2.60;;;2.28;;
20828;SDS011;10575;50.124;8.582;2022-07-29T08:02:23;5.47;;;2.00;;
20828;SDS011;10575;50.124;8.582;2022-07-29T08:04:54;4.18;;;2.50;;
20828;SDS011;10575;50.124;8.582;2022-07-29T08:07:19;8.13;;;2.30;;
20828;SDS011;10575;50.124;8.582;2022-07-29T08:09:45;4.10;;;2.22;;
20828;SDS011;10575;50.124;8.582;2022-07-29T08:12:10;5.95;;;2.50;;
20828;SDS011;10575;50.124;8.582;2022-07-29T08:14:36;3.83;;;2.00;;
20828;SDS011;10575;50.124;8.582;2022-07-29T08:17:01;3.35;;;2.22;;
20828;SDS011;10575;50.124;8.582;2022-07-29T08:19:27;3.85;;;2.03;;
20828;SDS011;10575;50.124;8.582;2022-07-29T08:21:53;5.00;;;2.47;;
20828;SDS011;10575;50.124;8.582;2022-07-29T08:24:19;5.07;;;2.47;;
20828;SDS011;10575;50.124;8.582;2022-07-29T08:27:04;5.13;;;2.00;;
20828;SDS011;10575;50.124;8.582;2022-07-29T08:29:29;3.83;;;2.20;;
20828;SDS011;10575;50.124;8.582;2022-07-29T08:31:55;4.55;;;2.30;;
20828;SDS011;10575;50.124;8.582;2022-07-29T08:34:20;4.82;;;2.22;;
20828;SDS011;10575;50.124;8.582;2022-07-29T08:36:46;6.85;;;2.40;;
20828;SDS011;10575;50.124;8.582;2022-07-29T08:39:12;2.78;;;2.20;;
20828;SDS011;10575;50.124;8.582;2022-07-29T08:41:37;4.50;;;2.22;;
20828;SDS011;10575;50.124;8.582;2022-07-29T08:44:03;3.38;;;2.13;;
20828;SDS011;10575;50.124;8.582;2022-07-29T08:46:28;2.75;;;2.10;;
20828;SDS011;10575;50.124;8.582;2022-07-29T08:48:55;5.72;;;2.42;;
20828;SDS011;10575;50.124;8.582;2022-07-29T08:51:20;3.17;;;1.95;;
20828;SDS011;10575;50.124;8.582;2022-07-29T08:53:47;2.35;;;1.80;;
20828;SDS011;10575;50.124;8.582;2022-07-29T08:56:15;6.40;;;2.40;;
20828;SDS011;10575;50.124;8.582;2022-07-29T08:58:43;4.10;;;1.90;;
20828;SDS011;10575;50.124;8.582;2022-07-29T09:01:09;2.42;;;1.80;;
20828;SDS011;10575;50.124;8.582;2022-07-29T09:03:37;4.10;;;2.45;;
20828;SDS011;10575;50.124;8.582;2022-07-29T09:06:04;5.40;;;2.10;;
20828;SDS011;10575;50.124;8.582;2022-07-29T09:08:30;5.05;;;2.22;;
20828;SDS011;10575;50.124;8.582;2022-07-29T09:10:57;7.07;;;2.28;;
20828;SDS011;10575;50.124;8.582;2022-07-29T09:13:25;2.35;;;1.80;;
20828;SDS011;10575;50.124;8.582;2022-07-29T09:15:50;1.92;;;1.77;;
20828;SDS011;10575;50.124;8.582;2022-07-29T09:21:05;3.40;;;1.95;;
20828;SDS011;10575;50.124;8.582;2022-07-29T09:23:59;4.38;;;2.03;;
20828;SDS011;10575;50.124;8.582;2022-07-29T09:26:27;4.32;;;2.30;;
20828;SDS011;10575;50.124;8.582;2022-07-29T09:28:54;4.30;;;1.92;;
20828;SDS011;10575;50.124;8.582;2022-07-29T09:31:19;3.72;;;2.05;;
20828;SDS011;10575;50.124;8.582;2022-07-29T09:33:59;5.65;;;2.63;;
20828;SDS011;10575;50.124;8.582;2022-07-29T09:36:25;4.30;;;2.58;;
20828;SDS011;10575;50.124;8.582;2022-07-29T09:39:00;5.18;;;2.30;;
20828;SDS011;10575;50.124;8.582;2022-07-29T09:41:27;2.55;;;2.35;;
20828;SDS011;10575;50.124;8.582;2022-07-29T09:43:56;4.50;;;2.50;;
20828;SDS011;10575;50.124;8.582;2022-07-29T09:46:23;8.07;;;2.67;;
20828;SDS011;10575;50.124;8.582;2022-07-29T09:51:35;5.22;;;2.60;;
20828;SDS011;10575;50.124;8.582;2022-07-29T09:54:01;4.32;;;2.63;;
20828;SDS011;10575;50.124;8.582;2022-07-29T09:56:39;3.88;;;2.60;;
20828;SDS011;10575;50.124;8.582;2022-07-29T09:59:05;5.88;;;2.72;;
20828;SDS011;10575;50.124;8.582;2022-07-29T10:01:31;7.57;;;3.10;;
20828;SDS011;10575;50.124;8.582;2022-07-29T10:03:57;4.70;;;2.50;;
20828;SDS011;10575;50.124;8.582;2022-07-29T10:06:23;4.68;;;2.70;;
20828;SDS011;10575;50.124;8.582;2022-07-29T10:08:50;2.40;;;2.20;;
20828;SDS011;10575;50.124;8.582;2022-07-29T10:11:20;4.53;;;2.10;;
20828;SDS011;10575;50.124;8.582;2022-07-29T10:13:47;4.70;;;3.10;;
20828;SDS011;10575;50.124;8.582;2022-07-29T10:16:13;4.15;;;2.35;;
20828;SDS011;10575;50.124;8.582;2022-07-29T10:18:41;8.48;;;3.20;;
20828;SDS011;10575;50.124;8.582;2022-07-29T10:21:08;7.63;;;3.53;;
20828;SDS011;10575;50.124;8.582;2022-07-29T10:23:35;3.40;;;2.85;;
20828;SDS011;10575;50.124;8.582;2022-07-29T10:26:01;3.63;;;2.72;;
20828;SDS011;10575;50.124;8.582;2022-07-29T10:28:28;6.97;;;2.50;;
20828;SDS011;10575;50.124;8.582;2022-07-29T10:30:59;3.42;;;2.70;;
20828;SDS011;10575;50.124;8.582;2022-07-29T10:33:44;3.45;;;2.67;;
20828;SDS011;10575;50.124;8.582;2022-07-29T10:38:52;8.68;;;3.30;;
20828;SDS011;10575;50.124;8.582;2022-07-29T10:41:37;5.88;;;3.15;;
20828;SDS011;10575;50.124;8.582;2022-07-29T10:44:21;4.47;;;2.70;;
20828;SDS011;10575;50.124;8.582;2022-07-29T10:46:48;4.13;;;2.70;;
20828;SDS011;10575;50.124;8.582;2022-07-29T10:49:21;7.03;;;2.63;;
20828;SDS011;10575;50.124;8.582;2022-07-29T10:59:38;3.72;;;3.00;;
20828;SDS011;10575;50.124;8.582;2022-07-29T11:05:02;4.93;;;3.30;;
20828;SDS011;10575;50.124;8.582;2022-07-29T11:07:30;3.35;;;2.65;;
20828;SDS011;10575;50.124;8.582;2022-07-29T11:12:46;6.45;;;2.50;;
20828;SDS011;10575;50.124;8.582;2022-07-29T11:15:16;5.35;;;2.72;;
20828;SDS011;10575;50.124;8.582;2022-07-29T11:31:19;9.65;;;3.20;;
20828;SDS011;10575;50.124;8.582;2022-07-29T11:33:57;3.80;;;2.45;;
20828;SDS011;10575;50.124;8.582;2022-07-29T11:39:37;4.20;;;2.80;;
20828;SDS011;10575;50.124;8.582;2022-07-29T11:47:40;5.85;;;3.17;;
20828;SDS011;10575;50.124;8.582;2022-07-29T11:50:33;8.32;;;2.50;;
20828;SDS011;10575;50.124;8.582;2022-07-29T11:53:02;7.55;;;2.88;;
20828;SDS011;10575;50.124;8.582;2022-07-29T11:55:36;4.78;;;2.80;;
20828;SDS011;10575;50.124;8.582;2022-07-29T11:58:04;8.35;;;2.92;;
20828;SDS011;10575;50.124;8.582;2022-07-29T12:03:00;4.68;;;2.97;;
20828;SDS011;10575;50.124;8.582;2022-07-29T12:05:36;8.50;;;3.30;;
20828;SDS011;10575;50.124;8.582;2022-07-29T12:08:07;3.05;;;2.75;;
20828;SDS011;10575;50.124;8.582;2022-07-29T12:10:33;3.88;;;2.83;;
20828;SDS011;10575;50.124;8.582;2022-07-29T12:12:59;3.25;;;2.95;;
20828;SDS011;10575;50.124;8.582;2022-07-29T12:15:24;4.68;;;3.05;;
20828;SDS011;10575;50.124;8.582;2022-07-29T12:17:51;3.55;;;2.70;;
20828;SDS011;10575;50.124;8.582;2022-07-29T12:20:24;3.83;;;2.92;;
20828;SDS011;10575;50.124;8.582;2022-07-29T12:23:03;4.10;;;2.92;;
20828;SDS011;10575;50.124;8.582;2022-07-29T12:25:33;5.43;;;2.70;;
20828;SDS011;10575;50.124;8.582;2022-07-29T12:28:06;3.75;;;3.10;;
20828;SDS011;10575;50.124;8.582;2022-07-29T12:30:41;5.80;;;3.42;;
20828;SDS011;10575;50.124;8.582;2022-07-29T12:33:16;6.72;;;2.85;;
20828;SDS011;10575;50.124;8.582;2022-07-29T12:35:49;6.55;;;4.32;;
20828;SDS011;10575;50.124;8.582;2022-07-29T12:38:18;4.13;;;3.60;;
20828;SDS011;10575;50.124;8.582;2022-07-29T12:40:44;4.13;;;3.72;;
20828;SDS011;10575;50.124;8.582;2022-07-29T12:43:12;5.85;;;3.15;;
20828;SDS011;10575;50.124;8.582;2022-07-29T12:45:51;5.05;;;3.10;;
20828;SDS011;10575;50.124;8.582;2022-07-29T12:48:38;5.68;;;3.17;;
20828;SDS011;10575;50.124;8.582;2022-07-29T12:51:05;5.20;;;3.35;;
20828;SDS011;10575;50.124;8.582;2022-07-29T12:53:34;4.90;;;2.70;;
20828;SDS011;10575;50.124;8.582;2022-07-29T12:56:00;6.85;;;2.88;;
20828;SDS011;10575;50.124;8.582;2022-07-29T12:58:38;4.45;;;3.70;;
20828;SDS011;10575;50.124;8.582;2022-07-29T13:03:44;7.63;;;3.20;;
20828;SDS011;10575;50.124;8.582;2022-07-29T13:06:27;4.50;;;3.05;;
20828;SDS011;10575;50.124;8.582;2022-07-29T13:09:00;4.85;;;2.70;;
20828;SDS011;10575;50.124;8.582;2022-07-29T13:11:31;4.20;;;3.38;;
20828;SDS011;10575;50.124;8.582;2022-07-29T13:13:58;6.28;;;2.83;;
20828;SDS011;10575;50.124;8.582;2022-07-29T13:16:24;5.43;;;3.10;;
20828;SDS011;10575;50.124;8.582;2022-07-29T13:19:09;7.05;;;3.22;;
20828;SDS011;10575;50.124;8.582;2022-07-29T13:21:36;5.32;;;3.03;;
20828;SDS011;10575;50.124;8.582;2022-07-29T13:24:04;6.32;;;3.15;;
20828;SDS011;10575;50.124;8.582;2022-07-29T13:26:30;4.07;;;3.03;;
20828;SDS011;10575;50.124;8.582;2022-07-29T13:28:56;5.63;;;3.22;;
20828;SDS011;10575;50.124;8.582;2022-07-29T13:31:22;6.28;;;2.90;;
20828;SDS011;10575;50.124;8.582;2022-07-29T13:33:49;6.22;;;3.20;;
20828;SDS011;10575;50.124;8.582;2022-07-29T13:36:14;3.63;;;2.80;;
20828;SDS011;10575;50.124;8.582;2022-07-29T13:38:40;4.10;;;3.13;;
20828;SDS011;10575;50.124;8.582;2022-07-29T13:41:05;4.70;;;2.80;;
20828;SDS011;10575;50.124;8.582;2022-07-29T13:43:31;5.68;;;3.17;;
20828;SDS011;10575;50.124;8.582;2022-07-29T13:45:57;3.95;;;2.85;;
20828;SDS011;10575;50.124;8.582;2022-07-29T13:48:22;6.40;;;3.40;;
20828;SDS011;10575;50.124;8.582;2022-07-29T13:50:48;4.90;;;3.17;;
20828;SDS011;10575;50.124;8.582;2022-07-29T13:53:13;3.88;;;2.92;;
20828;SDS011;10575;50.124;8.582;2022-07-29T13:55:39;7.53;;;3.22;;
20828;SDS011;10575;50.124;8.582;2022-07-29T13:58:05;6.80;;;3.63;;
20828;SDS011;10575;50.124;8.582;2022-07-29T14:00:30;5.25;;;2.83;;
20828;SDS011;10575;50.124;8.582;2022-07-29T14:02:56;5.22;;;3.55;;
20828;SDS011;10575;50.124;8.582;2022-07-29T14:05:22;5.57;;;3.20;;
20828;SDS011;10575;50.124;8.582;2022-07-29T14:07:48;3.65;;;3.17;;
20828;SDS011;10575;50.124;8.582;2022-07-29T14:10:13;7.53;;;3.30;;
20828;SDS011;10575;50.124;8.582;2022-07-29T14:12:39;8.05;;;3.72;;
20828;SDS011;10575;50.124;8.582;2022-07-29T14:15:06;3.85;;;2.95;;
20828;SDS011;10575;50.124;8.582;2022-07-29T14:17:33;4.03;;;3.20;;
20828;SDS011;10575;50.124;8.582;2022-07-29T14:19:59;5.28;;;3.17;;
20828;SDS011;10575;50.124;8.582;2022-07-29T14:22:25;4.85;;;3.55;;
20828;SDS011;10575;50.124;8.582;2022-07-29T14:24:51;3.55;;;2.78;;
20828;SDS011;10575;50.124;8.582;2022-07-29T14:27:17;3.20;;;2.85;;
20828;SDS011;10575;50.124;8.582;2022-07-29T14:29:43;5.72;;;3.53;;
20828;SDS011;10575;50.124;8.582;2022-07-29T14:32:08;4.95;;;2.85;;
20828;SDS011;10575;50.124;8.582;2022-07-29T14:34:35;3.00;;;2.63;;
20828;SDS011;10575;50.124;8.582;2022-07-29T14:37:01;3.80;;;2.78;;
20828;SDS011;10575;50.124;8.582;2022-07-29T14:39:29;7.57;;;2.88;;
20828;SDS011;10575;50.124;8.582;2022-07-29T14:41:55;9.55;;;3.38;;
20828;SDS011;10575;50.124;8.582;2022-07-29T14:44:21;3.63;;;3.03;;
20828;SDS011;10575;50.124;8.582;2022-07-29T14:46:46;3.45;;;3.00;;
20828;SDS011;10575;50.124;8.582;2022-07-29T14:49:12;4.05;;;2.90;;
20828;SDS011;10575;50.124;8.582;2022-07-29T14:51:37;4.50;;;2.90;;
20828;SDS011;10575;50.124;8.582;2022-07-29T14:54:03;3.80;;;3.05;;
20828;SDS011;10575;50.124;8.582;2022-07-29T14:56:28;7.20;;;3.00;;
20828;SDS011;10575;50.124;8.582;2022-07-29T14:58:55;3.35;;;2.50;;
20828;SDS011;10575;50.124;8.582;2022-07-29T15:01:23;5.05;;;3.22;;
20828;SDS011;10575;50.124;8.582;2022-07-29T15:03:49;5.43;;;3.10;;
20828;SDS011;10575;50.124;8.582;2022-07-29T15:06:15;6.78;;;3.72;;
20828;SDS011;10575;50.124;8.582;2022-07-29T15:08:41;4.93;;;2.97;;
20828;SDS011;10575;50.124;8.582;2022-07-29T15:11:06;3.50;;;2.47;;
20828;SDS011;10575;50.124;8.582;2022-07-29T15:13:33;4.60;;;2.47;;
20828;SDS011;10575;50.124;8.582;2022-07-29T15:15:59;3.53;;;2.45;;
20828;SDS011;10575;50.124;8.582;2022-07-29T15:18:24;5.43;;;2.20;;
20828;SDS011;10575;50.124;8.582;2022-07-29T15:20:50;2.88;;;2.40;;
20828;SDS011;10575;50.124;8.582;2022-07-29T15:23:15;2.15;;;1.75;;
20828;SDS011;10575;50.124;8.582;2022-07-29T15:25:41;3.45;;;1.98;;
20828;SDS011;10575;50.124;8.582;2022-07-29T15:28:06;5.43;;;2.20;;
20828;SDS011;10575;50.124;8.582;2022-07-29T15:30:32;5.88;;;2.20;;
20828;SDS011;10575;50.124;8.582;2022-07-29T15:33:01;3.88;;;1.55;;
20828;SDS011;10575;50.124;8.582;2022-07-29T15:35:27;1.63;;;1.33;;
20828;SDS011;10575;50.124;8.582;2022-07-29T15:37:52;1.55;;;1.20;;
20828;SDS011;10575;50.124;8.582;2022-07-29T15:40:19;1.80;;;0.98;;
20828;SDS011;10575;50.124;8.582;2022-07-29T15:42:45;1.65;;;1.20;;
20828;SDS011;10575;50.124;8.582;2022-07-29T15:45:10;3.83;;;1.00;;
20828;SDS011;10575;50.124;8.582;2022-07-29T15:47:36;1.00;;;0.90;;
20828;SDS011;10575;50.124;8.582;2022-07-29T15:50:01;1.38;;;1.17;;
20828;SDS011;10575;50.124;8.582;2022-07-29T15:52:27;2.95;;;1.40;;
20828;SDS011;10575;50.124;8.582;2022-07-29T15:54:54;3.53;;;1.42;;